sensor_id;sensor_type;location;lat;lon;timestamp;P1;durP1;ratioP1;P2;durP2;ratioP2
31680;SDS011;18281;51.364;9.566;2023-06-24T00:00:32;6.85;;;4.05;;
31680;SDS011;18281;51.364;9.566;2023-06-24T00:02:58;6.70;;;3.80;;
31680;SDS011;18281;51.364;9.566;2023-06-24T00:05:27;6.05;;;3.55;;
31680;SDS011;18281;51.364;9.566;2023-06-24T00:07:55;8.57;;;4.38;;
31680;SDS011;18281;51.364;9.566;2023-06-24T00:10:22;8.63;;;4.28;;
31680;SDS011;18281;51.364;9.566;2023-06-24T00:12:48;9.38;;;3.63;;
31680;SDS011;18281;51.364;9.566;2023-06-24T00:15:13;10.32;;;3.88;;
31680;SDS011;18281;51.364;9.566;2023-06-24T00:17:39;9.82;;;3.70;;
31680;SDS011;18281;51.364;9.566;2023-06-24T00:20:05;13.23;;;4.20;;
31680;SDS011;18281;51.364;9.566;2023-06-24T00:22:34;5.25;;;3.67;;
31680;SDS011;18281;51.364;9.566;2023-06-24T00:24:59;8.00;;;4.10;;
31680;SDS011;18281;51.364;9.566;2023-06-24T00:27:25;10.75;;;3.50;;
31680;SDS011;18281;51.364;9.566;2023-06-24T00:29:51;11.25;;;3.72;;
31680;SDS011;18281;51.364;9.566;2023-06-24T00:32:16;11.65;;;3.83;;
31680;SDS011;18281;51.364;9.566;2023-06-24T00:34:41;7.70;;;4.07;;
31680;SDS011;18281;51.364;9.566;2023-06-24T00:37:08;8.40;;;3.90;;
31680;SDS011;18281;51.364;9.566;2023-06-24T00:39:34;14.38;;;5.95;;
31680;SDS011;18281;51.364;9.566;2023-06-24T00:42:00;10.15;;;3.80;;
31680;SDS011;18281;51.364;9.566;2023-06-24T00:44:25;6.95;;;3.50;;
31680;SDS011;18281;51.364;9.566;2023-06-24T00:46:50;5.75;;;3.70;;
31680;SDS011;18281;51.364;9.566;2023-06-24T00:49:16;8.30;;;4.53;;
31680;SDS011;18281;51.364;9.566;2023-06-24T00:51:42;10.27;;;3.80;;
31680;SDS011;18281;51.364;9.566;2023-06-24T00:54:12;5.35;;;3.80;;
31680;SDS011;18281;51.364;9.566;2023-06-24T00:56:38;6.80;;;3.80;;
31680;SDS011;18281;51.364;9.566;2023-06-24T00:59:03;11.30;;;3.63;;
31680;SDS011;18281;51.364;9.566;2023-06-24T01:01:33;7.50;;;3.97;;
31680;SDS011;18281;51.364;9.566;2023-06-24T01:04:00;7.03;;;3.80;;
31680;SDS011;18281;51.364;9.566;2023-06-24T01:06:27;9.40;;;4.47;;
31680;SDS011;18281;51.364;9.566;2023-06-24T01:09:00;5.68;;;3.25;;
31680;SDS011;18281;51.364;9.566;2023-06-24T01:11:27;12.48;;;4.22;;
31680;SDS011;18281;51.364;9.566;2023-06-24T01:13:54;9.55;;;3.95;;
31680;SDS011;18281;51.364;9.566;2023-06-24T01:19:04;5.55;;;3.63;;
31680;SDS011;18281;51.364;9.566;2023-06-24T01:22:02;6.30;;;3.63;;
31680;SDS011;18281;51.364;9.566;2023-06-24T01:32:43;6.75;;;3.15;;
31680;SDS011;18281;51.364;9.566;2023-06-24T01:35:16;9.50;;;3.55;;
31680;SDS011;18281;51.364;9.566;2023-06-24T01:37:47;6.07;;;3.70;;
31680;SDS011;18281;51.364;9.566;2023-06-24T01:40:37;7.20;;;3.85;;
31680;SDS011;18281;51.364;9.566;2023-06-24T01:43:08;8.75;;;3.92;;
31680;SDS011;18281;51.364;9.566;2023-06-24T01:45:45;4.78;;;3.47;;
31680;SDS011;18281;51.364;9.566;2023-06-24T01:48:14;4.35;;;3.58;;
31680;SDS011;18281;51.364;9.566;2023-06-24T01:50:47;6.80;;;4.25;;
31680;SDS011;18281;51.364;9.566;2023-06-24T01:53:18;5.55;;;3.70;;
31680;SDS011;18281;51.364;9.566;2023-06-24T01:55:45;12.20;;;4.32;;
31680;SDS011;18281;51.364;9.566;2023-06-24T01:58:11;6.03;;;4.63;;
31680;SDS011;18281;51.364;9.566;2023-06-24T02:00:38;8.60;;;3.95;;
31680;SDS011;18281;51.364;9.566;2023-06-24T02:03:05;6.70;;;3.50;;
31680;SDS011;18281;51.364;9.566;2023-06-24T02:05:33;4.82;;;3.53;;
31680;SDS011;18281;51.364;9.566;2023-06-24T02:08:19;7.28;;;3.60;;
31680;SDS011;18281;51.364;9.566;2023-06-24T02:10:46;10.90;;;3.97;;
31680;SDS011;18281;51.364;9.566;2023-06-24T02:13:13;7.70;;;4.05;;
31680;SDS011;18281;51.364;9.566;2023-06-24T02:15:41;7.13;;;3.33;;
31680;SDS011;18281;51.364;9.566;2023-06-24T02:18:08;5.43;;;3.35;;
31680;SDS011;18281;51.364;9.566;2023-06-24T02:20:35;3.20;;;2.90;;
31680;SDS011;18281;51.364;9.566;2023-06-24T02:23:03;5.10;;;3.53;;
31680;SDS011;18281;51.364;9.566;2023-06-24T02:25:31;7.18;;;3.65;;
31680;SDS011;18281;51.364;9.566;2023-06-24T02:27:57;6.68;;;3.45;;
31680;SDS011;18281;51.364;9.566;2023-06-24T02:30:23;5.55;;;3.30;;
31680;SDS011;18281;51.364;9.566;2023-06-24T02:32:49;4.72;;;3.20;;
31680;SDS011;18281;51.364;9.566;2023-06-24T02:35:16;4.00;;;3.60;;
31680;SDS011;18281;51.364;9.566;2023-06-24T02:37:41;4.22;;;3.53;;
31680;SDS011;18281;51.364;9.566;2023-06-24T02:40:07;6.68;;;3.33;;
31680;SDS011;18281;51.364;9.566;2023-06-24T02:42:35;5.05;;;3.50;;
31680;SDS011;18281;51.364;9.566;2023-06-24T02:45:01;3.88;;;3.25;;
31680;SDS011;18281;51.364;9.566;2023-06-24T02:47:28;3.63;;;3.33;;
31680;SDS011;18281;51.364;9.566;2023-06-24T02:49:55;3.20;;;3.00;;
31680;SDS011;18281;51.364;9.566;2023-06-24T02:52:24;3.80;;;3.00;;
31680;SDS011;18281;51.364;9.566;2023-06-24T02:54:54;4.22;;;2.90;;
31680;SDS011;18281;51.364;9.566;2023-06-24T02:57:22;3.20;;;2.90;;
31680;SDS011;18281;51.364;9.566;2023-06-24T02:59:48;5.07;;;3.05;;
31680;SDS011;18281;51.364;9.566;2023-06-24T03:02:14;4.70;;;2.85;;
31680;SDS011;18281;51.364;9.566;2023-06-24T03:04:44;3.25;;;2.90;;
31680;SDS011;18281;51.364;9.566;2023-06-24T03:07:10;5.10;;;3.30;;
31680;SDS011;18281;51.364;9.566;2023-06-24T03:09:36;3.35;;;3.05;;
31680;SDS011;18281;51.364;9.566;2023-06-24T03:12:03;4.65;;;2.85;;
31680;SDS011;18281;51.364;9.566;2023-06-24T03:14:30;4.43;;;2.92;;
31680;SDS011;18281;51.364;9.566;2023-06-24T03:16:56;5.18;;;2.92;;
31680;SDS011;18281;51.364;9.566;2023-06-24T03:19:22;3.00;;;2.70;;
31680;SDS011;18281;51.364;9.566;2023-06-24T03:21:47;3.08;;;2.88;;
31680;SDS011;18281;51.364;9.566;2023-06-24T03:24:13;2.92;;;2.60;;
31680;SDS011;18281;51.364;9.566;2023-06-24T03:26:39;3.20;;;2.75;;
31680;SDS011;18281;51.364;9.566;2023-06-24T03:29:05;6.95;;;2.67;;
31680;SDS011;18281;51.364;9.566;2023-06-24T03:31:33;2.85;;;2.50;;
31680;SDS011;18281;51.364;9.566;2023-06-24T03:33:58;7.30;;;2.80;;
31680;SDS011;18281;51.364;9.566;2023-06-24T03:36:24;2.90;;;2.70;;
31680;SDS011;18281;51.364;9.566;2023-06-24T03:38:50;3.55;;;2.72;;
31680;SDS011;18281;51.364;9.566;2023-06-24T03:41:16;2.97;;;2.67;;
31680;SDS011;18281;51.364;9.566;2023-06-24T03:43:41;8.13;;;4.90;;
31680;SDS011;18281;51.364;9.566;2023-06-24T03:46:07;4.10;;;2.90;;
31680;SDS011;18281;51.364;9.566;2023-06-24T03:48:33;4.63;;;3.47;;
31680;SDS011;18281;51.364;9.566;2023-06-24T03:51:00;2.95;;;2.75;;
31680;SDS011;18281;51.364;9.566;2023-06-24T03:53:26;6.70;;;3.15;;
31680;SDS011;18281;51.364;9.566;2023-06-24T03:55:54;4.72;;;3.10;;
31680;SDS011;18281;51.364;9.566;2023-06-24T03:58:23;5.20;;;3.33;;
31680;SDS011;18281;51.364;9.566;2023-06-24T04:00:48;5.73;;;3.40;;
31680;SDS011;18281;51.364;9.566;2023-06-24T04:03:15;3.88;;;2.90;;
31680;SDS011;18281;51.364;9.566;2023-06-24T04:05:43;3.28;;;3.00;;
31680;SDS011;18281;51.364;9.566;2023-06-24T04:08:09;4.10;;;3.30;;
31680;SDS011;18281;51.364;9.566;2023-06-24T04:10:39;2.92;;;2.60;;
31680;SDS011;18281;51.364;9.566;2023-06-24T04:13:07;4.22;;;3.15;;
31680;SDS011;18281;51.364;9.566;2023-06-24T04:15:32;4.18;;;3.22;;
31680;SDS011;18281;51.364;9.566;2023-06-24T04:17:58;4.45;;;2.95;;
31680;SDS011;18281;51.364;9.566;2023-06-24T04:20:23;4.45;;;2.92;;
31680;SDS011;18281;51.364;9.566;2023-06-24T04:22:55;4.05;;;3.20;;
31680;SDS011;18281;51.364;9.566;2023-06-24T04:25:20;3.72;;;2.70;;
31680;SDS011;18281;51.364;9.566;2023-06-24T04:27:46;7.18;;;3.03;;
31680;SDS011;18281;51.364;9.566;2023-06-24T04:30:11;3.47;;;3.17;;
31680;SDS011;18281;51.364;9.566;2023-06-24T04:32:38;2.78;;;2.55;;
31680;SDS011;18281;51.364;9.566;2023-06-24T04:35:04;4.25;;;2.78;;
31680;SDS011;18281;51.364;9.566;2023-06-24T04:37:29;4.47;;;3.15;;
31680;SDS011;18281;51.364;9.566;2023-06-24T04:39:55;3.53;;;2.80;;
31680;SDS011;18281;51.364;9.566;2023-06-24T04:42:21;2.97;;;2.75;;
31680;SDS011;18281;51.364;9.566;2023-06-24T04:44:47;6.03;;;3.28;;
31680;SDS011;18281;51.364;9.566;2023-06-24T04:47:16;3.15;;;2.83;;
31680;SDS011;18281;51.364;9.566;2023-06-24T04:49:42;3.15;;;2.63;;
31680;SDS011;18281;51.364;9.566;2023-06-24T04:52:08;3.53;;;2.88;;
31680;SDS011;18281;51.364;9.566;2023-06-24T04:54:34;5.72;;;3.13;;
31680;SDS011;18281;51.364;9.566;2023-06-24T04:56:59;4.60;;;3.03;;
31680;SDS011;18281;51.364;9.566;2023-06-24T04:59:25;3.50;;;3.20;;
31680;SDS011;18281;51.364;9.566;2023-06-24T05:01:50;3.38;;;3.05;;
31680;SDS011;18281;51.364;9.566;2023-06-24T05:04:16;4.05;;;3.13;;
31680;SDS011;18281;51.364;9.566;2023-06-24T05:06:41;3.70;;;3.40;;
31680;SDS011;18281;51.364;9.566;2023-06-24T05:09:07;4.32;;;3.17;;
31680;SDS011;18281;51.364;9.566;2023-06-24T05:11:33;5.43;;;2.95;;
31680;SDS011;18281;51.364;9.566;2023-06-24T05:13:59;3.05;;;2.72;;
31680;SDS011;18281;51.364;9.566;2023-06-24T05:16:24;7.45;;;3.00;;
31680;SDS011;18281;51.364;9.566;2023-06-24T05:18:50;3.90;;;3.22;;
31680;SDS011;18281;51.364;9.566;2023-06-24T05:21:15;2.90;;;2.70;;
31680;SDS011;18281;51.364;9.566;2023-06-24T05:23:41;2.72;;;2.53;;
31680;SDS011;18281;51.364;9.566;2023-06-24T05:26:06;3.97;;;2.50;;
31680;SDS011;18281;51.364;9.566;2023-06-24T05:28:31;4.07;;;2.75;;
31680;SDS011;18281;51.364;9.566;2023-06-24T05:30:57;4.03;;;2.80;;
31680;SDS011;18281;51.364;9.566;2023-06-24T05:33:22;3.47;;;2.92;;
31680;SDS011;18281;51.364;9.566;2023-06-24T05:35:54;4.65;;;3.10;;
31680;SDS011;18281;51.364;9.566;2023-06-24T05:38:20;6.88;;;4.38;;
31680;SDS011;18281;51.364;9.566;2023-06-24T05:40:45;5.80;;;3.97;;
31680;SDS011;18281;51.364;9.566;2023-06-24T05:43:10;9.50;;;3.88;;
31680;SDS011;18281;51.364;9.566;2023-06-24T05:45:36;7.90;;;4.03;;
31680;SDS011;18281;51.364;9.566;2023-06-24T05:48:02;5.05;;;3.72;;
31680;SDS011;18281;51.364;9.566;2023-06-24T05:50:28;9.05;;;4.10;;
31680;SDS011;18281;51.364;9.566;2023-06-24T05:52:53;5.00;;;3.65;;
31680;SDS011;18281;51.364;9.566;2023-06-24T05:55:19;4.03;;;3.63;;
31680;SDS011;18281;51.364;9.566;2023-06-24T05:57:44;11.30;;;4.18;;
31680;SDS011;18281;51.364;9.566;2023-06-24T06:00:10;4.22;;;3.72;;
31680;SDS011;18281;51.364;9.566;2023-06-24T06:02:35;6.13;;;3.95;;
31680;SDS011;18281;51.364;9.566;2023-06-24T06:05:00;5.38;;;3.92;;
31680;SDS011;18281;51.364;9.566;2023-06-24T06:07:26;8.60;;;4.28;;
31680;SDS011;18281;51.364;9.566;2023-06-24T06:09:55;6.32;;;4.50;;
31680;SDS011;18281;51.364;9.566;2023-06-24T06:12:20;4.72;;;4.25;;
31680;SDS011;18281;51.364;9.566;2023-06-24T06:14:46;6.57;;;3.63;;
31680;SDS011;18281;51.364;9.566;2023-06-24T06:17:11;7.32;;;4.20;;
31680;SDS011;18281;51.364;9.566;2023-06-24T06:19:39;5.78;;;4.65;;
31680;SDS011;18281;51.364;9.566;2023-06-24T06:22:06;5.72;;;4.30;;
31680;SDS011;18281;51.364;9.566;2023-06-24T06:24:34;7.35;;;4.28;;
31680;SDS011;18281;51.364;9.566;2023-06-24T06:27:00;6.90;;;4.47;;
31680;SDS011;18281;51.364;9.566;2023-06-24T06:29:25;4.57;;;4.15;;
31680;SDS011;18281;51.364;9.566;2023-06-24T06:31:51;4.93;;;4.13;;
31680;SDS011;18281;51.364;9.566;2023-06-24T06:34:17;7.65;;;4.30;;
31680;SDS011;18281;51.364;9.566;2023-06-24T06:36:43;4.88;;;4.47;;
31680;SDS011;18281;51.364;9.566;2023-06-24T06:39:14;9.30;;;4.55;;
31680;SDS011;18281;51.364;9.566;2023-06-24T06:41:40;5.28;;;4.35;;
31680;SDS011;18281;51.364;9.566;2023-06-24T06:44:05;5.88;;;3.97;;
31680;SDS011;18281;51.364;9.566;2023-06-24T06:46:31;5.50;;;4.53;;
31680;SDS011;18281;51.364;9.566;2023-06-24T06:48:56;9.32;;;5.57;;
31680;SDS011;18281;51.364;9.566;2023-06-24T06:51:21;29.20;;;17.52;;
31680;SDS011;18281;51.364;9.566;2023-06-24T06:53:49;47.55;;;26.10;;
31680;SDS011;18281;51.364;9.566;2023-06-24T06:56:24;26.48;;;14.73;;
31680;SDS011;18281;51.364;9.566;2023-06-24T06:58:50;16.05;;;10.50;;
31680;SDS011;18281;51.364;9.566;2023-06-24T07:01:18;17.50;;;9.93;;
31680;SDS011;18281;51.364;9.566;2023-06-24T07:03:44;12.38;;;7.93;;
31680;SDS011;18281;51.364;9.566;2023-06-24T07:06:10;9.52;;;6.65;;
31680;SDS011;18281;51.364;9.566;2023-06-24T07:08:35;9.80;;;6.82;;
31680;SDS011;18281;51.364;9.566;2023-06-24T07:11:01;9.57;;;6.32;;
31680;SDS011;18281;51.364;9.566;2023-06-24T07:13:27;7.22;;;6.07;;
31680;SDS011;18281;51.364;9.566;2023-06-24T07:15:52;11.02;;;5.82;;
31680;SDS011;18281;51.364;9.566;2023-06-24T07:18:21;6.10;;;5.38;;
31680;SDS011;18281;51.364;9.566;2023-06-24T07:20:46;10.10;;;6.35;;
31680;SDS011;18281;51.364;9.566;2023-06-24T07:23:12;9.07;;;6.07;;
31680;SDS011;18281;51.364;9.566;2023-06-24T07:25:37;9.32;;;5.57;;
31680;SDS011;18281;51.364;9.566;2023-06-24T07:28:03;10.40;;;5.88;;
31680;SDS011;18281;51.364;9.566;2023-06-24T07:30:28;9.07;;;5.55;;
31680;SDS011;18281;51.364;9.566;2023-06-24T07:32:54;11.43;;;7.13;;
31680;SDS011;18281;51.364;9.566;2023-06-24T07:35:19;9.23;;;5.03;;
31680;SDS011;18281;51.364;9.566;2023-06-24T07:37:57;7.72;;;5.93;;
31680;SDS011;18281;51.364;9.566;2023-06-24T07:40:40;6.18;;;5.57;;
31680;SDS011;18281;51.364;9.566;2023-06-24T07:43:05;8.98;;;6.25;;
31680;SDS011;18281;51.364;9.566;2023-06-24T07:48:27;8.45;;;5.72;;
31680;SDS011;18281;51.364;9.566;2023-06-24T07:57:19;8.25;;;5.43;;
31680;SDS011;18281;51.364;9.566;2023-06-24T08:05:50;6.05;;;4.72;;
31680;SDS011;18281;51.364;9.566;2023-06-24T08:08:16;6.55;;;4.63;;
31680;SDS011;18281;51.364;9.566;2023-06-24T08:10:44;10.40;;;4.65;;
31680;SDS011;18281;51.364;9.566;2023-06-24T08:13:16;8.57;;;5.10;;
31680;SDS011;18281;51.364;9.566;2023-06-24T08:15:41;10.45;;;4.68;;
31680;SDS011;18281;51.364;9.566;2023-06-24T08:18:07;23.63;;;5.53;;
31680;SDS011;18281;51.364;9.566;2023-06-24T08:20:32;6.03;;;4.47;;
31680;SDS011;18281;51.364;9.566;2023-06-24T08:22:57;7.90;;;4.38;;
31680;SDS011;18281;51.364;9.566;2023-06-24T08:25:23;8.68;;;5.13;;
31680;SDS011;18281;51.364;9.566;2023-06-24T08:31:32;9.00;;;4.65;;
31680;SDS011;18281;51.364;9.566;2023-06-24T08:34:00;4.70;;;3.90;;
31680;SDS011;18281;51.364;9.566;2023-06-24T08:36:27;8.93;;;4.75;;
31680;SDS011;18281;51.364;9.566;2023-06-24T08:38:57;5.35;;;3.88;;
31680;SDS011;18281;51.364;9.566;2023-06-24T08:41:23;4.28;;;3.97;;
31680;SDS011;18281;51.364;9.566;2023-06-24T08:43:52;6.60;;;4.60;;
31680;SDS011;18281;51.364;9.566;2023-06-24T08:46:19;5.32;;;4.15;;
31680;SDS011;18281;51.364;9.566;2023-06-24T08:48:45;5.80;;;4.10;;
31680;SDS011;18281;51.364;9.566;2023-06-24T08:51:13;5.43;;;3.78;;
31680;SDS011;18281;51.364;9.566;2023-06-24T08:53:44;6.30;;;3.90;;
31680;SDS011;18281;51.364;9.566;2023-06-24T08:56:24;4.90;;;4.07;;
31680;SDS011;18281;51.364;9.566;2023-06-24T08:58:50;4.35;;;3.88;;
31680;SDS011;18281;51.364;9.566;2023-06-24T09:01:16;5.28;;;3.80;;
31680;SDS011;18281;51.364;9.566;2023-06-24T09:03:42;7.93;;;3.33;;
31680;SDS011;18281;51.364;9.566;2023-06-24T09:06:07;4.07;;;3.25;;
31680;SDS011;18281;51.364;9.566;2023-06-24T09:08:33;5.00;;;3.22;;
31680;SDS011;18281;51.364;9.566;2023-06-24T09:11:00;5.15;;;3.33;;
31680;SDS011;18281;51.364;9.566;2023-06-24T09:13:35;4.70;;;2.83;;
31680;SDS011;18281;51.364;9.566;2023-06-24T09:16:14;5.18;;;2.95;;
31680;SDS011;18281;51.364;9.566;2023-06-24T09:18:39;5.53;;;3.63;;
31680;SDS011;18281;51.364;9.566;2023-06-24T09:21:05;3.53;;;3.22;;
31680;SDS011;18281;51.364;9.566;2023-06-24T09:23:35;4.22;;;3.60;;
31680;SDS011;18281;51.364;9.566;2023-06-24T09:26:01;7.88;;;3.72;;
31680;SDS011;18281;51.364;9.566;2023-06-24T09:28:27;4.95;;;3.40;;
31680;SDS011;18281;51.364;9.566;2023-06-24T09:31:05;5.28;;;3.45;;
31680;SDS011;18281;51.364;9.566;2023-06-24T09:33:35;4.15;;;3.20;;
31680;SDS011;18281;51.364;9.566;2023-06-24T09:36:03;5.22;;;3.03;;
31680;SDS011;18281;51.364;9.566;2023-06-24T09:38:34;5.68;;;3.67;;
31680;SDS011;18281;51.364;9.566;2023-06-24T09:41:04;6.80;;;3.70;;
31680;SDS011;18281;51.364;9.566;2023-06-24T09:43:36;4.63;;;3.65;;
31680;SDS011;18281;51.364;9.566;2023-06-24T09:46:04;5.47;;;3.65;;
31680;SDS011;18281;51.364;9.566;2023-06-24T09:48:31;4.45;;;3.17;;
31680;SDS011;18281;51.364;9.566;2023-06-24T09:50:59;5.93;;;3.28;;
31680;SDS011;18281;51.364;9.566;2023-06-24T09:53:26;5.32;;;3.50;;
31680;SDS011;18281;51.364;9.566;2023-06-24T09:55:55;5.68;;;3.58;;
31680;SDS011;18281;51.364;9.566;2023-06-24T09:58:22;5.45;;;3.22;;
31680;SDS011;18281;51.364;9.566;2023-06-24T10:00:48;4.75;;;3.30;;
31680;SDS011;18281;51.364;9.566;2023-06-24T10:03:15;7.38;;;4.05;;
31680;SDS011;18281;51.364;9.566;2023-06-24T10:05:41;5.25;;;3.58;;
31680;SDS011;18281;51.364;9.566;2023-06-24T10:08:08;8.13;;;4.07;;
31680;SDS011;18281;51.364;9.566;2023-06-24T10:10:35;13.25;;;3.55;;
31680;SDS011;18281;51.364;9.566;2023-06-24T10:13:00;3.78;;;3.13;;
31680;SDS011;18281;51.364;9.566;2023-06-24T10:15:26;5.10;;;3.25;;
31680;SDS011;18281;51.364;9.566;2023-06-24T10:17:52;4.93;;;2.88;;
31680;SDS011;18281;51.364;9.566;2023-06-24T10:20:24;4.90;;;2.80;;
31680;SDS011;18281;51.364;9.566;2023-06-24T10:22:52;3.97;;;3.03;;
31680;SDS011;18281;51.364;9.566;2023-06-24T10:25:18;3.38;;;2.60;;
31680;SDS011;18281;51.364;9.566;2023-06-24T10:31:55;2.47;;;2.30;;
31680;SDS011;18281;51.364;9.566;2023-06-24T10:34:39;4.72;;;2.60;;
31680;SDS011;18281;51.364;9.566;2023-06-24T10:37:10;2.72;;;2.40;;
31680;SDS011;18281;51.364;9.566;2023-06-24T10:42:29;4.60;;;2.50;;
31680;SDS011;18281;51.364;9.566;2023-06-24T10:47:33;4.72;;;3.08;;
31680;SDS011;18281;51.364;9.566;2023-06-24T10:50:01;2.75;;;2.55;;
31680;SDS011;18281;51.364;9.566;2023-06-24T10:52:26;3.53;;;2.63;;
31680;SDS011;18281;51.364;9.566;2023-06-24T10:54:52;4.47;;;3.03;;
31680;SDS011;18281;51.364;9.566;2023-06-24T10:57:25;4.60;;;2.95;;
31680;SDS011;18281;51.364;9.566;2023-06-24T10:59:55;4.20;;;2.67;;
31680;SDS011;18281;51.364;9.566;2023-06-24T11:02:24;4.05;;;3.05;;
31680;SDS011;18281;51.364;9.566;2023-06-24T11:04:51;3.50;;;3.20;;
31680;SDS011;18281;51.364;9.566;2023-06-24T11:07:21;2.75;;;2.45;;
31680;SDS011;18281;51.364;9.566;2023-06-24T11:09:49;4.05;;;2.65;;
31680;SDS011;18281;51.364;9.566;2023-06-24T11:12:15;4.63;;;3.13;;
31680;SDS011;18281;51.364;9.566;2023-06-24T11:14:44;4.32;;;3.10;;
31680;SDS011;18281;51.364;9.566;2023-06-24T11:17:09;4.88;;;3.22;;
31680;SDS011;18281;51.364;9.566;2023-06-24T11:19:35;4.80;;;3.75;;
31680;SDS011;18281;51.364;9.566;2023-06-24T11:24:29;3.42;;;2.95;;
31680;SDS011;18281;51.364;9.566;2023-06-24T11:26:55;3.55;;;2.78;;
31680;SDS011;18281;51.364;9.566;2023-06-24T11:29:21;6.68;;;3.70;;
31680;SDS011;18281;51.364;9.566;2023-06-24T11:31:49;3.17;;;2.45;;
31680;SDS011;18281;51.364;9.566;2023-06-24T11:34:15;4.07;;;3.13;;
31680;SDS011;18281;51.364;9.566;2023-06-24T11:36:41;5.10;;;3.08;;
31680;SDS011;18281;51.364;9.566;2023-06-24T11:39:06;10.73;;;2.90;;
31680;SDS011;18281;51.364;9.566;2023-06-24T11:41:32;5.32;;;2.97;;
31680;SDS011;18281;51.364;9.566;2023-06-24T11:43:57;3.47;;;2.80;;
31680;SDS011;18281;51.364;9.566;2023-06-24T11:48:53;3.28;;;2.88;;
31680;SDS011;18281;51.364;9.566;2023-06-24T11:51:28;3.28;;;2.60;;
31680;SDS011;18281;51.364;9.566;2023-06-24T11:53:58;5.20;;;3.25;;
31680;SDS011;18281;51.364;9.566;2023-06-24T11:56:34;4.75;;;3.10;;
31680;SDS011;18281;51.364;9.566;2023-06-24T11:59:03;4.65;;;3.03;;
31680;SDS011;18281;51.364;9.566;2023-06-24T12:01:32;6.20;;;2.77;;
31680;SDS011;18281;51.364;9.566;2023-06-24T12:04:01;3.72;;;3.15;;
31680;SDS011;18281;51.364;9.566;2023-06-24T12:06:34;3.25;;;2.95;;
31680;SDS011;18281;51.364;9.566;2023-06-24T12:08:59;4.50;;;2.88;;
31680;SDS011;18281;51.364;9.566;2023-06-24T12:11:25;5.82;;;2.72;;
31680;SDS011;18281;51.364;9.566;2023-06-24T12:13:50;3.25;;;2.88;;
31680;SDS011;18281;51.364;9.566;2023-06-24T12:16:15;3.70;;;2.60;;
31680;SDS011;18281;51.364;9.566;2023-06-24T12:18:41;3.80;;;2.70;;
31680;SDS011;18281;51.364;9.566;2023-06-24T12:21:06;3.25;;;2.95;;
31680;SDS011;18281;51.364;9.566;2023-06-24T12:23:31;2.85;;;2.65;;
31680;SDS011;18281;51.364;9.566;2023-06-24T12:25:57;3.67;;;3.05;;
31680;SDS011;18281;51.364;9.566;2023-06-24T12:28:22;4.13;;;2.50;;
31680;SDS011;18281;51.364;9.566;2023-06-24T12:30:47;2.80;;;2.60;;
31680;SDS011;18281;51.364;9.566;2023-06-24T12:33:13;3.95;;;2.60;;
31680;SDS011;18281;51.364;9.566;2023-06-24T12:35:38;4.40;;;2.95;;
31680;SDS011;18281;51.364;9.566;2023-06-24T12:38:03;4.32;;;3.17;;
31680;SDS011;18281;51.364;9.566;2023-06-24T12:40:29;4.40;;;2.78;;
31680;SDS011;18281;51.364;9.566;2023-06-24T12:42:54;2.67;;;2.47;;
31680;SDS011;18281;51.364;9.566;2023-06-24T12:45:20;3.75;;;2.63;;
31680;SDS011;18281;51.364;9.566;2023-06-24T12:47:45;3.30;;;3.00;;
31680;SDS011;18281;51.364;9.566;2023-06-24T12:50:11;4.60;;;2.45;;
31680;SDS011;18281;51.364;9.566;2023-06-24T12:52:36;4.10;;;2.72;;
31680;SDS011;18281;51.364;9.566;2023-06-24T12:55:02;3.58;;;2.75;;
31680;SDS011;18281;51.364;9.566;2023-06-24T12:57:28;5.03;;;2.40;;
31680;SDS011;18281;51.364;9.566;2023-06-24T12:59:54;3.20;;;2.50;;
31680;SDS011;18281;51.364;9.566;2023-06-24T13:02:19;8.15;;;2.88;;
31680;SDS011;18281;51.364;9.566;2023-06-24T13:04:45;6.43;;;2.95;;
31680;SDS011;18281;51.364;9.566;2023-06-24T13:07:12;3.00;;;2.63;;
31680;SDS011;18281;51.364;9.566;2023-06-24T13:09:37;6.38;;;2.95;;
31680;SDS011;18281;51.364;9.566;2023-06-24T13:12:03;3.85;;;2.50;;
31680;SDS011;18281;51.364;9.566;2023-06-24T13:14:29;3.33;;;2.95;;
31680;SDS011;18281;51.364;9.566;2023-06-24T13:16:55;4.18;;;3.40;;
31680;SDS011;18281;51.364;9.566;2023-06-24T13:19:20;3.67;;;2.92;;
31680;SDS011;18281;51.364;9.566;2023-06-24T13:21:46;4.43;;;3.05;;
31680;SDS011;18281;51.364;9.566;2023-06-24T13:24:11;6.70;;;2.92;;
31680;SDS011;18281;51.364;9.566;2023-06-24T13:26:37;6.65;;;3.22;;
31680;SDS011;18281;51.364;9.566;2023-06-24T13:29:03;7.15;;;2.60;;
31680;SDS011;18281;51.364;9.566;2023-06-24T13:34:20;4.75;;;2.97;;
31680;SDS011;18281;51.364;9.566;2023-06-24T13:36:46;4.55;;;2.47;;
31680;SDS011;18281;51.364;9.566;2023-06-24T13:39:12;7.47;;;2.97;;
31680;SDS011;18281;51.364;9.566;2023-06-24T13:41:37;4.63;;;2.72;;
31680;SDS011;18281;51.364;9.566;2023-06-24T13:44:03;3.80;;;3.08;;
31680;SDS011;18281;51.364;9.566;2023-06-24T13:46:29;6.10;;;2.88;;
31680;SDS011;18281;51.364;9.566;2023-06-24T13:48:56;5.95;;;2.72;;
31680;SDS011;18281;51.364;9.566;2023-06-24T13:51:22;3.00;;;2.70;;
31680;SDS011;18281;51.364;9.566;2023-06-24T13:53:49;3.10;;;2.85;;
31680;SDS011;18281;51.364;9.566;2023-06-24T13:56:19;6.18;;;3.40;;
31680;SDS011;18281;51.364;9.566;2023-06-24T13:58:46;4.05;;;2.67;;
31680;SDS011;18281;51.364;9.566;2023-06-24T14:01:11;3.13;;;2.75;;
31680;SDS011;18281;51.364;9.566;2023-06-24T14:03:37;3.88;;;2.92;;
31680;SDS011;18281;51.364;9.566;2023-06-24T14:06:06;3.72;;;2.60;;
31680;SDS011;18281;51.364;9.566;2023-06-24T14:08:31;3.38;;;2.85;;
31680;SDS011;18281;51.364;9.566;2023-06-24T14:10:57;5.72;;;3.00;;
31680;SDS011;18281;51.364;9.566;2023-06-24T14:13:24;3.25;;;2.95;;
31680;SDS011;18281;51.364;9.566;2023-06-24T14:15:51;2.90;;;2.70;;
31680;SDS011;18281;51.364;9.566;2023-06-24T14:18:17;3.03;;;2.78;;
31680;SDS011;18281;51.364;9.566;2023-06-24T14:20:42;2.75;;;2.53;;
31680;SDS011;18281;51.364;9.566;2023-06-24T14:23:08;2.63;;;2.42;;
31680;SDS011;18281;51.364;9.566;2023-06-24T14:25:33;4.35;;;2.85;;
31680;SDS011;18281;51.364;9.566;2023-06-24T14:27:59;3.03;;;2.78;;
31680;SDS011;18281;51.364;9.566;2023-06-24T14:30:24;3.30;;;2.95;;
31680;SDS011;18281;51.364;9.566;2023-06-24T14:32:49;4.30;;;2.80;;
31680;SDS011;18281;51.364;9.566;2023-06-24T14:35:15;3.88;;;2.78;;
31680;SDS011;18281;51.364;9.566;2023-06-24T14:37:40;3.88;;;3.00;;
31680;SDS011;18281;51.364;9.566;2023-06-24T14:40:07;3.10;;;2.80;;
31680;SDS011;18281;51.364;9.566;2023-06-24T14:49:25;5.45;;;3.30;;
31680;SDS011;18281;51.364;9.566;2023-06-24T14:54:42;3.38;;;2.60;;
31680;SDS011;18281;51.364;9.566;2023-06-24T14:57:07;3.55;;;2.72;;
31680;SDS011;18281;51.364;9.566;2023-06-24T14:59:33;3.53;;;2.63;;
31680;SDS011;18281;51.364;9.566;2023-06-24T15:01:58;2.75;;;2.60;;
31680;SDS011;18281;51.364;9.566;2023-06-24T15:04:24;5.13;;;2.90;;
31680;SDS011;18281;51.364;9.566;2023-06-24T15:06:50;3.65;;;2.97;;
31680;SDS011;18281;51.364;9.566;2023-06-24T15:09:18;3.22;;;3.03;;
31680;SDS011;18281;51.364;9.566;2023-06-24T15:11:46;3.55;;;2.78;;
31680;SDS011;18281;51.364;9.566;2023-06-24T15:14:11;3.13;;;2.85;;
31680;SDS011;18281;51.364;9.566;2023-06-24T15:16:37;3.67;;;3.28;;
31680;SDS011;18281;51.364;9.566;2023-06-24T15:19:04;4.75;;;3.58;;
31680;SDS011;18281;51.364;9.566;2023-06-24T15:24:48;4.72;;;3.17;;
31680;SDS011;18281;51.364;9.566;2023-06-24T15:28:03;3.22;;;2.90;;
31680;SDS011;18281;51.364;9.566;2023-06-24T15:31:10;3.40;;;3.10;;
31680;SDS011;18281;51.364;9.566;2023-06-24T15:33:36;3.28;;;2.78;;
31680;SDS011;18281;51.364;9.566;2023-06-24T15:36:01;4.20;;;3.33;;
31680;SDS011;18281;51.364;9.566;2023-06-24T15:38:26;4.05;;;3.40;;
31680;SDS011;18281;51.364;9.566;2023-06-24T15:40:52;4.28;;;3.88;;
31680;SDS011;18281;51.364;9.566;2023-06-24T15:43:18;3.53;;;3.20;;
31680;SDS011;18281;51.364;9.566;2023-06-24T15:45:44;3.50;;;3.00;;